Airport View

Enter AWOS ICAO identifier for current METAR.

ex. KFNL

KBOS 191854Z 28015G27KT 10SM FEW025 FEW120 SCT250 07/M05 A2962 RMK AO2 PK WND 28029/1837 SLP028 T00671050 $

19 Jan 2020 19:48

Phone: 617-567-5762

Other Area AWOS: KMQE - KOWD - KBVY - KBED

TAF KBOS 191734Z 1918/2024 27015G25KT P6SM FEW025 FEW120 SCT250 FM200100 30013G24KT P6SM SCT200 FM200800 33013G24KT P6SM BKN060 FM201500 33012G20KT P6SM FEW200 FM202300 30009KT P6SM SKC